sensor_id;sensor_type;location;lat;lon;timestamp;P1;durP1;ratioP1;P2;durP2;ratioP2
76336;SDS011;65157;50.082;18.178;2023-08-12T00:00:54;9.90;;;5.80;;
76336;SDS011;65157;50.082;18.178;2023-08-12T00:03:31;9.10;;;5.10;;
76336;SDS011;65157;50.082;18.178;2023-08-12T00:05:57;8.90;;;6.50;;
76336;SDS011;65157;50.082;18.178;2023-08-12T00:10:49;11.10;;;5.50;;
76336;SDS011;65157;50.082;18.178;2023-08-12T00:13:15;13.00;;;5.50;;
76336;SDS011;65157;50.082;18.178;2023-08-12T00:15:42;9.00;;;5.60;;
76336;SDS011;65157;50.082;18.178;2023-08-12T00:18:10;13.10;;;5.50;;
76336;SDS011;65157;50.082;18.178;2023-08-12T00:20:36;7.30;;;5.10;;
76336;SDS011;65157;50.082;18.178;2023-08-12T00:23:02;7.60;;;4.90;;
76336;SDS011;65157;50.082;18.178;2023-08-12T00:25:28;7.80;;;5.90;;
76336;SDS011;65157;50.082;18.178;2023-08-12T00:27:54;10.00;;;5.80;;
76336;SDS011;65157;50.082;18.178;2023-08-12T00:30:20;10.30;;;6.00;;
76336;SDS011;65157;50.082;18.178;2023-08-12T00:32:46;9.40;;;5.70;;
76336;SDS011;65157;50.082;18.178;2023-08-12T00:35:12;7.80;;;4.90;;
76336;SDS011;65157;50.082;18.178;2023-08-12T00:37:38;7.50;;;5.00;;
76336;SDS011;65157;50.082;18.178;2023-08-12T00:40:04;8.80;;;5.70;;
76336;SDS011;65157;50.082;18.178;2023-08-12T00:42:30;7.00;;;5.10;;
76336;SDS011;65157;50.082;18.178;2023-08-12T00:44:57;7.50;;;5.80;;
76336;SDS011;65157;50.082;18.178;2023-08-12T00:47:24;8.00;;;5.80;;
76336;SDS011;65157;50.082;18.178;2023-08-12T00:49:50;10.50;;;6.40;;
76336;SDS011;65157;50.082;18.178;2023-08-12T00:52:18;8.20;;;6.00;;
76336;SDS011;65157;50.082;18.178;2023-08-12T00:54:44;7.80;;;5.40;;
76336;SDS011;65157;50.082;18.178;2023-08-12T00:57:10;12.10;;;5.80;;
76336;SDS011;65157;50.082;18.178;2023-08-12T00:59:37;7.70;;;5.50;;
76336;SDS011;65157;50.082;18.178;2023-08-12T01:04:30;8.80;;;5.50;;
76336;SDS011;65157;50.082;18.178;2023-08-12T01:06:56;9.30;;;5.90;;
76336;SDS011;65157;50.082;18.178;2023-08-12T01:09:22;7.40;;;5.30;;
76336;SDS011;65157;50.082;18.178;2023-08-12T01:11:50;7.00;;;5.80;;
76336;SDS011;65157;50.082;18.178;2023-08-12T01:14:39;5.90;;;4.90;;
76336;SDS011;65157;50.082;18.178;2023-08-12T01:17:30;7.10;;;5.50;;
76336;SDS011;65157;50.082;18.178;2023-08-12T01:19:59;6.70;;;5.30;;
76336;SDS011;65157;50.082;18.178;2023-08-12T01:22:27;8.00;;;5.40;;
76336;SDS011;65157;50.082;18.178;2023-08-12T01:24:55;7.90;;;4.80;;
76336;SDS011;65157;50.082;18.178;2023-08-12T01:27:21;8.40;;;5.40;;
76336;SDS011;65157;50.082;18.178;2023-08-12T01:29:48;9.10;;;5.80;;
76336;SDS011;65157;50.082;18.178;2023-08-12T01:35:23;9.50;;;5.50;;
76336;SDS011;65157;50.082;18.178;2023-08-12T01:37:58;8.60;;;4.80;;
76336;SDS011;65157;50.082;18.178;2023-08-12T01:40:26;7.70;;;5.20;;
76336;SDS011;65157;50.082;18.178;2023-08-12T01:42:55;6.60;;;4.60;;
76336;SDS011;65157;50.082;18.178;2023-08-12T01:45:21;9.00;;;5.60;;
76336;SDS011;65157;50.082;18.178;2023-08-12T01:47:48;7.00;;;5.80;;
76336;SDS011;65157;50.082;18.178;2023-08-12T01:50:14;10.70;;;5.20;;
76336;SDS011;65157;50.082;18.178;2023-08-12T01:52:39;7.50;;;5.70;;
76336;SDS011;65157;50.082;18.178;2023-08-12T01:55:05;8.30;;;6.00;;
76336;SDS011;65157;50.082;18.178;2023-08-12T01:57:32;8.20;;;6.00;;
76336;SDS011;65157;50.082;18.178;2023-08-12T01:59:57;6.50;;;5.50;;
76336;SDS011;65157;50.082;18.178;2023-08-12T02:02:23;7.70;;;5.10;;
76336;SDS011;65157;50.082;18.178;2023-08-12T02:04:49;7.90;;;6.00;;
76336;SDS011;65157;50.082;18.178;2023-08-12T02:07:15;7.80;;;6.00;;
76336;SDS011;65157;50.082;18.178;2023-08-12T02:09:41;7.70;;;5.70;;
76336;SDS011;65157;50.082;18.178;2023-08-12T02:12:07;8.70;;;5.50;;
76336;SDS011;65157;50.082;18.178;2023-08-12T02:14:33;7.20;;;5.00;;
76336;SDS011;65157;50.082;18.178;2023-08-12T02:16:59;8.40;;;5.50;;
76336;SDS011;65157;50.082;18.178;2023-08-12T02:19:25;6.80;;;5.00;;
76336;SDS011;65157;50.082;18.178;2023-08-12T02:21:51;5.30;;;4.80;;
76336;SDS011;65157;50.082;18.178;2023-08-12T02:24:17;6.80;;;5.40;;
76336;SDS011;65157;50.082;18.178;2023-08-12T02:26:42;9.00;;;6.00;;
76336;SDS011;65157;50.082;18.178;2023-08-12T02:29:08;7.20;;;5.20;;
76336;SDS011;65157;50.082;18.178;2023-08-12T02:31:34;12.10;;;5.50;;
76336;SDS011;65157;50.082;18.178;2023-08-12T02:34:00;7.00;;;5.10;;
76336;SDS011;65157;50.082;18.178;2023-08-12T02:36:26;10.40;;;5.80;;
76336;SDS011;65157;50.082;18.178;2023-08-12T02:38:52;8.30;;;5.70;;
76336;SDS011;65157;50.082;18.178;2023-08-12T02:41:18;7.50;;;5.60;;
76336;SDS011;65157;50.082;18.178;2023-08-12T02:43:44;6.20;;;5.40;;
76336;SDS011;65157;50.082;18.178;2023-08-12T02:46:10;5.80;;;5.00;;
76336;SDS011;65157;50.082;18.178;2023-08-12T02:48:35;6.10;;;5.40;;
76336;SDS011;65157;50.082;18.178;2023-08-12T02:51:01;8.00;;;4.70;;
76336;SDS011;65157;50.082;18.178;2023-08-12T02:53:27;6.10;;;5.50;;
76336;SDS011;65157;50.082;18.178;2023-08-12T02:55:53;9.20;;;5.90;;
76336;SDS011;65157;50.082;18.178;2023-08-12T02:58:19;6.30;;;5.00;;
76336;SDS011;65157;50.082;18.178;2023-08-12T03:00:45;10.30;;;5.10;;
76336;SDS011;65157;50.082;18.178;2023-08-12T03:03:11;11.50;;;6.70;;
76336;SDS011;65157;50.082;18.178;2023-08-12T03:05:37;8.50;;;5.90;;
76336;SDS011;65157;50.082;18.178;2023-08-12T03:08:03;8.70;;;5.80;;
76336;SDS011;65157;50.082;18.178;2023-08-12T03:10:30;7.90;;;5.60;;
76336;SDS011;65157;50.082;18.178;2023-08-12T03:12:56;6.20;;;5.50;;
76336;SDS011;65157;50.082;18.178;2023-08-12T03:15:22;6.60;;;5.00;;
76336;SDS011;65157;50.082;18.178;2023-08-12T03:17:48;5.60;;;5.00;;
76336;SDS011;65157;50.082;18.178;2023-08-12T03:20:14;6.00;;;5.40;;
76336;SDS011;65157;50.082;18.178;2023-08-12T03:22:40;7.50;;;6.40;;
76336;SDS011;65157;50.082;18.178;2023-08-12T03:25:06;7.90;;;5.30;;
76336;SDS011;65157;50.082;18.178;2023-08-12T03:27:32;8.50;;;4.90;;
76336;SDS011;65157;50.082;18.178;2023-08-12T03:29:58;10.10;;;4.80;;
76336;SDS011;65157;50.082;18.178;2023-08-12T03:32:24;6.70;;;5.80;;
76336;SDS011;65157;50.082;18.178;2023-08-12T03:34:51;8.50;;;5.50;;
76336;SDS011;65157;50.082;18.178;2023-08-12T03:37:17;6.00;;;5.50;;
76336;SDS011;65157;50.082;18.178;2023-08-12T03:39:43;6.20;;;5.50;;
76336;SDS011;65157;50.082;18.178;2023-08-12T03:42:09;8.40;;;5.00;;
76336;SDS011;65157;50.082;18.178;2023-08-12T03:44:35;7.50;;;4.50;;
76336;SDS011;65157;50.082;18.178;2023-08-12T03:47:01;5.40;;;4.50;;
76336;SDS011;65157;50.082;18.178;2023-08-12T03:49:27;6.00;;;5.40;;
76336;SDS011;65157;50.082;18.178;2023-08-12T03:51:53;7.00;;;5.70;;
76336;SDS011;65157;50.082;18.178;2023-08-12T03:54:20;7.80;;;5.80;;
76336;SDS011;65157;50.082;18.178;2023-08-12T03:56:46;8.40;;;5.40;;
76336;SDS011;65157;50.082;18.178;2023-08-12T03:59:12;7.90;;;6.10;;
76336;SDS011;65157;50.082;18.178;2023-08-12T04:01:38;7.60;;;6.00;;
76336;SDS011;65157;50.082;18.178;2023-08-12T04:04:04;7.80;;;5.30;;
76336;SDS011;65157;50.082;18.178;2023-08-12T04:06:31;7.10;;;5.70;;
76336;SDS011;65157;50.082;18.178;2023-08-12T04:08:57;6.80;;;6.00;;
76336;SDS011;65157;50.082;18.178;2023-08-12T04:11:23;6.30;;;5.70;;
76336;SDS011;65157;50.082;18.178;2023-08-12T04:13:49;6.50;;;5.80;;
76336;SDS011;65157;50.082;18.178;2023-08-12T04:16:15;7.60;;;6.20;;
76336;SDS011;65157;50.082;18.178;2023-08-12T04:18:41;5.70;;;4.90;;
76336;SDS011;65157;50.082;18.178;2023-08-12T04:21:07;8.80;;;5.00;;
76336;SDS011;65157;50.082;18.178;2023-08-12T04:23:33;6.20;;;5.60;;
76336;SDS011;65157;50.082;18.178;2023-08-12T04:25:59;7.40;;;5.90;;
76336;SDS011;65157;50.082;18.178;2023-08-12T04:28:24;6.90;;;6.20;;
76336;SDS011;65157;50.082;18.178;2023-08-12T04:30:50;7.30;;;6.50;;
76336;SDS011;65157;50.082;18.178;2023-08-12T04:33:16;7.80;;;7.00;;
76336;SDS011;65157;50.082;18.178;2023-08-12T04:35:42;7.00;;;6.20;;
76336;SDS011;65157;50.082;18.178;2023-08-12T04:38:08;8.80;;;6.50;;
76336;SDS011;65157;50.082;18.178;2023-08-12T04:40:37;7.00;;;6.40;;
76336;SDS011;65157;50.082;18.178;2023-08-12T04:43:05;7.40;;;5.40;;
76336;SDS011;65157;50.082;18.178;2023-08-12T04:45:31;6.90;;;5.80;;
76336;SDS011;65157;50.082;18.178;2023-08-12T04:47:57;6.00;;;5.20;;
76336;SDS011;65157;50.082;18.178;2023-08-12T04:50:23;6.30;;;5.70;;
76336;SDS011;65157;50.082;18.178;2023-08-12T04:52:49;6.50;;;5.90;;
76336;SDS011;65157;50.082;18.178;2023-08-12T04:55:15;10.00;;;6.10;;
76336;SDS011;65157;50.082;18.178;2023-08-12T04:57:41;6.70;;;5.50;;
76336;SDS011;65157;50.082;18.178;2023-08-12T05:00:07;6.50;;;5.70;;
76336;SDS011;65157;50.082;18.178;2023-08-12T05:02:33;5.70;;;5.20;;
76336;SDS011;65157;50.082;18.178;2023-08-12T05:04:59;6.10;;;5.50;;
76336;SDS011;65157;50.082;18.178;2023-08-12T05:07:26;7.00;;;6.00;;
76336;SDS011;65157;50.082;18.178;2023-08-12T05:09:52;7.40;;;5.80;;
76336;SDS011;65157;50.082;18.178;2023-08-12T05:12:18;6.50;;;5.40;;
76336;SDS011;65157;50.082;18.178;2023-08-12T05:14:44;6.10;;;5.60;;
76336;SDS011;65157;50.082;18.178;2023-08-12T05:17:11;6.50;;;5.50;;
76336;SDS011;65157;50.082;18.178;2023-08-12T05:19:37;7.80;;;5.90;;
76336;SDS011;65157;50.082;18.178;2023-08-12T05:22:04;6.80;;;6.00;;
76336;SDS011;65157;50.082;18.178;2023-08-12T05:24:30;6.70;;;6.00;;
76336;SDS011;65157;50.082;18.178;2023-08-12T05:26:56;8.60;;;5.90;;
76336;SDS011;65157;50.082;18.178;2023-08-12T05:29:22;8.10;;;6.60;;
76336;SDS011;65157;50.082;18.178;2023-08-12T05:31:48;9.00;;;7.00;;
76336;SDS011;65157;50.082;18.178;2023-08-12T05:34:14;9.10;;;5.90;;
76336;SDS011;65157;50.082;18.178;2023-08-12T05:36:40;8.70;;;7.40;;
76336;SDS011;65157;50.082;18.178;2023-08-12T05:39:06;6.40;;;5.80;;
76336;SDS011;65157;50.082;18.178;2023-08-12T05:41:32;7.80;;;6.70;;
76336;SDS011;65157;50.082;18.178;2023-08-12T05:43:58;10.10;;;7.90;;
76336;SDS011;65157;50.082;18.178;2023-08-12T05:46:24;8.10;;;6.00;;
76336;SDS011;65157;50.082;18.178;2023-08-12T05:48:49;7.40;;;6.60;;
76336;SDS011;65157;50.082;18.178;2023-08-12T05:51:15;8.60;;;6.90;;
76336;SDS011;65157;50.082;18.178;2023-08-12T05:53:41;9.60;;;7.10;;
76336;SDS011;65157;50.082;18.178;2023-08-12T05:56:07;7.30;;;6.60;;
76336;SDS011;65157;50.082;18.178;2023-08-12T05:58:33;7.50;;;6.80;;
76336;SDS011;65157;50.082;18.178;2023-08-12T06:00:59;8.30;;;7.60;;
76336;SDS011;65157;50.082;18.178;2023-08-12T06:03:25;8.60;;;7.00;;
76336;SDS011;65157;50.082;18.178;2023-08-12T06:05:51;7.90;;;6.40;;
76336;SDS011;65157;50.082;18.178;2023-08-12T06:08:17;6.60;;;6.00;;
76336;SDS011;65157;50.082;18.178;2023-08-12T06:10:43;6.60;;;5.60;;
76336;SDS011;65157;50.082;18.178;2023-08-12T06:13:09;9.30;;;7.00;;
76336;SDS011;65157;50.082;18.178;2023-08-12T06:15:35;6.80;;;6.20;;
76336;SDS011;65157;50.082;18.178;2023-08-12T06:18:01;6.40;;;5.80;;
76336;SDS011;65157;50.082;18.178;2023-08-12T06:20:28;6.30;;;4.90;;
76336;SDS011;65157;50.082;18.178;2023-08-12T06:22:54;6.30;;;5.80;;
76336;SDS011;65157;50.082;18.178;2023-08-12T06:25:20;6.00;;;5.40;;
76336;SDS011;65157;50.082;18.178;2023-08-12T06:27:46;7.40;;;6.70;;
76336;SDS011;65157;50.082;18.178;2023-08-12T06:30:13;7.10;;;6.50;;
76336;SDS011;65157;50.082;18.178;2023-08-12T06:32:40;6.10;;;5.60;;
76336;SDS011;65157;50.082;18.178;2023-08-12T06:35:06;8.00;;;6.90;;
76336;SDS011;65157;50.082;18.178;2023-08-12T06:37:32;7.40;;;6.80;;
76336;SDS011;65157;50.082;18.178;2023-08-12T06:39:58;6.60;;;6.00;;
76336;SDS011;65157;50.082;18.178;2023-08-12T06:42:24;6.70;;;6.10;;
76336;SDS011;65157;50.082;18.178;2023-08-12T06:44:53;7.10;;;6.50;;
76336;SDS011;65157;50.082;18.178;2023-08-12T06:47:23;7.10;;;6.60;;
76336;SDS011;65157;50.082;18.178;2023-08-12T06:49:49;7.70;;;7.00;;
76336;SDS011;65157;50.082;18.178;2023-08-12T06:52:17;6.40;;;5.90;;
76336;SDS011;65157;50.082;18.178;2023-08-12T06:54:43;9.50;;;6.90;;
76336;SDS011;65157;50.082;18.178;2023-08-12T06:57:09;7.00;;;6.20;;
76336;SDS011;65157;50.082;18.178;2023-08-12T06:59:34;7.50;;;6.80;;
76336;SDS011;65157;50.082;18.178;2023-08-12T07:02:00;7.50;;;6.70;;
76336;SDS011;65157;50.082;18.178;2023-08-12T07:04:26;8.00;;;7.30;;
76336;SDS011;65157;50.082;18.178;2023-08-12T07:06:53;8.60;;;6.20;;
76336;SDS011;65157;50.082;18.178;2023-08-12T07:09:19;7.20;;;6.50;;
76336;SDS011;65157;50.082;18.178;2023-08-12T07:11:46;9.60;;;8.00;;
76336;SDS011;65157;50.082;18.178;2023-08-12T07:14:12;8.10;;;7.40;;
76336;SDS011;65157;50.082;18.178;2023-08-12T07:16:38;7.90;;;7.20;;
76336;SDS011;65157;50.082;18.178;2023-08-12T07:19:04;8.00;;;6.90;;
76336;SDS011;65157;50.082;18.178;2023-08-12T07:21:32;7.20;;;6.70;;
76336;SDS011;65157;50.082;18.178;2023-08-12T07:23:58;9.70;;;7.20;;
76336;SDS011;65157;50.082;18.178;2023-08-12T07:26:24;7.30;;;6.60;;
76336;SDS011;65157;50.082;18.178;2023-08-12T07:31:17;7.10;;;6.00;;
76336;SDS011;65157;50.082;18.178;2023-08-12T07:33:43;8.30;;;6.10;;
76336;SDS011;65157;50.082;18.178;2023-08-12T07:36:09;7.50;;;6.10;;
76336;SDS011;65157;50.082;18.178;2023-08-12T07:38:35;6.90;;;6.20;;
76336;SDS011;65157;50.082;18.178;2023-08-12T07:41:01;7.20;;;6.50;;
76336;SDS011;65157;50.082;18.178;2023-08-12T07:43:27;9.70;;;6.60;;
76336;SDS011;65157;50.082;18.178;2023-08-12T07:45:53;5.90;;;5.40;;
76336;SDS011;65157;50.082;18.178;2023-08-12T07:48:22;6.80;;;5.70;;
76336;SDS011;65157;50.082;18.178;2023-08-12T07:50:54;7.30;;;4.90;;
76336;SDS011;65157;50.082;18.178;2023-08-12T07:53:22;6.60;;;5.10;;
76336;SDS011;65157;50.082;18.178;2023-08-12T07:55:47;6.00;;;5.40;;
76336;SDS011;65157;50.082;18.178;2023-08-12T07:58:14;4.90;;;4.50;;
76336;SDS011;65157;50.082;18.178;2023-08-12T08:00:40;7.20;;;4.90;;
76336;SDS011;65157;50.082;18.178;2023-08-12T08:03:05;6.20;;;5.00;;
76336;SDS011;65157;50.082;18.178;2023-08-12T08:05:31;6.20;;;5.00;;
76336;SDS011;65157;50.082;18.178;2023-08-12T08:07:58;4.80;;;4.40;;
76336;SDS011;65157;50.082;18.178;2023-08-12T08:10:24;5.30;;;4.90;;
76336;SDS011;65157;50.082;18.178;2023-08-12T08:15:15;5.30;;;4.80;;
76336;SDS011;65157;50.082;18.178;2023-08-12T08:17:41;6.20;;;5.60;;
76336;SDS011;65157;50.082;18.178;2023-08-12T08:20:07;6.10;;;5.40;;
76336;SDS011;65157;50.082;18.178;2023-08-12T08:25:03;4.40;;;3.90;;
76336;SDS011;65157;50.082;18.178;2023-08-12T08:27:29;4.90;;;4.10;;
76336;SDS011;65157;50.082;18.178;2023-08-12T08:29:55;4.40;;;4.00;;
76336;SDS011;65157;50.082;18.178;2023-08-12T08:32:21;6.60;;;4.70;;
76336;SDS011;65157;50.082;18.178;2023-08-12T08:34:46;4.20;;;3.70;;
76336;SDS011;65157;50.082;18.178;2023-08-12T08:37:12;5.10;;;4.80;;
76336;SDS011;65157;50.082;18.178;2023-08-12T08:39:38;4.20;;;3.80;;
76336;SDS011;65157;50.082;18.178;2023-08-12T08:42:07;4.00;;;3.70;;
76336;SDS011;65157;50.082;18.178;2023-08-12T08:44:35;6.70;;;5.10;;
76336;SDS011;65157;50.082;18.178;2023-08-12T08:47:05;5.00;;;4.60;;
76336;SDS011;65157;50.082;18.178;2023-08-12T08:49:32;4.70;;;4.30;;
76336;SDS011;65157;50.082;18.178;2023-08-12T08:52:00;3.40;;;3.00;;
76336;SDS011;65157;50.082;18.178;2023-08-12T08:54:26;3.20;;;2.90;;
76336;SDS011;65157;50.082;18.178;2023-08-12T08:56:55;4.20;;;3.80;;
76336;SDS011;65157;50.082;18.178;2023-08-12T08:59:21;3.50;;;3.20;;
76336;SDS011;65157;50.082;18.178;2023-08-12T09:01:47;3.40;;;3.20;;
76336;SDS011;65157;50.082;18.178;2023-08-12T09:04:15;4.10;;;3.80;;
76336;SDS011;65157;50.082;18.178;2023-08-12T09:06:42;3.40;;;3.10;;
76336;SDS011;65157;50.082;18.178;2023-08-12T09:09:10;4.70;;;4.40;;
76336;SDS011;65157;50.082;18.178;2023-08-12T09:11:39;3.20;;;3.00;;
76336;SDS011;65157;50.082;18.178;2023-08-12T09:14:05;4.60;;;3.10;;
76336;SDS011;65157;50.082;18.178;2023-08-12T09:16:32;6.30;;;5.40;;
76336;SDS011;65157;50.082;18.178;2023-08-12T09:18:58;4.30;;;3.70;;
76336;SDS011;65157;50.082;18.178;2023-08-12T09:21:24;3.70;;;2.50;;
76336;SDS011;65157;50.082;18.178;2023-08-12T09:23:50;4.00;;;3.20;;
76336;SDS011;65157;50.082;18.178;2023-08-12T09:26:17;4.10;;;3.80;;
76336;SDS011;65157;50.082;18.178;2023-08-12T09:28:45;7.60;;;3.60;;
76336;SDS011;65157;50.082;18.178;2023-08-12T09:31:25;3.80;;;3.60;;
76336;SDS011;65157;50.082;18.178;2023-08-12T09:34:04;3.30;;;2.90;;
76336;SDS011;65157;50.082;18.178;2023-08-12T09:36:34;4.60;;;4.30;;
76336;SDS011;65157;50.082;18.178;2023-08-12T09:39:05;3.40;;;3.20;;
76336;SDS011;65157;50.082;18.178;2023-08-12T09:41:33;4.00;;;3.20;;
76336;SDS011;65157;50.082;18.178;2023-08-12T09:44:01;4.70;;;3.20;;
76336;SDS011;65157;50.082;18.178;2023-08-12T09:46:28;3.70;;;3.40;;
76336;SDS011;65157;50.082;18.178;2023-08-12T09:48:54;2.60;;;2.50;;
76336;SDS011;65157;50.082;18.178;2023-08-12T09:51:20;2.70;;;2.20;;
76336;SDS011;65157;50.082;18.178;2023-08-12T09:56:12;3.40;;;3.10;;
76336;SDS011;65157;50.082;18.178;2023-08-12T09:58:42;4.50;;;4.10;;
76336;SDS011;65157;50.082;18.178;2023-08-12T10:01:10;3.80;;;3.30;;
76336;SDS011;65157;50.082;18.178;2023-08-12T10:03:37;3.40;;;3.10;;
76336;SDS011;65157;50.082;18.178;2023-08-12T10:06:04;3.00;;;2.90;;
76336;SDS011;65157;50.082;18.178;2023-08-12T10:08:31;3.50;;;3.30;;
76336;SDS011;65157;50.082;18.178;2023-08-12T10:10:58;4.30;;;4.00;;
76336;SDS011;65157;50.082;18.178;2023-08-12T10:13:24;6.80;;;3.30;;
76336;SDS011;65157;50.082;18.178;2023-08-12T10:15:52;2.30;;;2.20;;
76336;SDS011;65157;50.082;18.178;2023-08-12T10:18:18;2.50;;;2.30;;
76336;SDS011;65157;50.082;18.178;2023-08-12T10:20:46;2.30;;;2.10;;
76336;SDS011;65157;50.082;18.178;2023-08-12T10:23:14;2.30;;;2.20;;
76336;SDS011;65157;50.082;18.178;2023-08-12T10:25:41;3.20;;;2.80;;
76336;SDS011;65157;50.082;18.178;2023-08-12T10:28:09;2.20;;;2.10;;
76336;SDS011;65157;50.082;18.178;2023-08-12T10:30:36;2.70;;;2.50;;
76336;SDS011;65157;50.082;18.178;2023-08-12T10:33:05;2.50;;;2.30;;
76336;SDS011;65157;50.082;18.178;2023-08-12T10:35:41;2.30;;;2.10;;
76336;SDS011;65157;50.082;18.178;2023-08-12T10:38:08;2.60;;;2.50;;
76336;SDS011;65157;50.082;18.178;2023-08-12T10:40:37;4.10;;;3.80;;
76336;SDS011;65157;50.082;18.178;2023-08-12T10:43:04;3.90;;;3.20;;
76336;SDS011;65157;50.082;18.178;2023-08-12T10:48:16;2.90;;;2.60;;
76336;SDS011;65157;50.082;18.178;2023-08-12T10:50:44;3.00;;;2.80;;
76336;SDS011;65157;50.082;18.178;2023-08-12T10:53:31;3.00;;;2.50;;
76336;SDS011;65157;50.082;18.178;2023-08-12T10:56:07;3.10;;;2.90;;
76336;SDS011;65157;50.082;18.178;2023-08-12T11:03:56;3.10;;;2.90;;
76336;SDS011;65157;50.082;18.178;2023-08-12T11:06:23;2.90;;;2.80;;
76336;SDS011;65157;50.082;18.178;2023-08-12T11:08:53;2.70;;;2.60;;
76336;SDS011;65157;50.082;18.178;2023-08-12T11:11:24;2.80;;;2.70;;
76336;SDS011;65157;50.082;18.178;2023-08-12T11:13:54;3.00;;;2.80;;
76336;SDS011;65157;50.082;18.178;2023-08-12T11:16:36;3.80;;;3.60;;
76336;SDS011;65157;50.082;18.178;2023-08-12T11:19:03;2.90;;;2.80;;
76336;SDS011;65157;50.082;18.178;2023-08-12T11:21:29;2.20;;;2.10;;
76336;SDS011;65157;50.082;18.178;2023-08-12T11:23:56;2.90;;;2.70;;
76336;SDS011;65157;50.082;18.178;2023-08-12T11:28:49;2.80;;;2.60;;
76336;SDS011;65157;50.082;18.178;2023-08-12T11:31:16;2.10;;;2.00;;
76336;SDS011;65157;50.082;18.178;2023-08-12T11:33:43;2.00;;;1.90;;
76336;SDS011;65157;50.082;18.178;2023-08-12T11:36:09;2.50;;;2.30;;
76336;SDS011;65157;50.082;18.178;2023-08-12T11:38:37;1.80;;;1.70;;
76336;SDS011;65157;50.082;18.178;2023-08-12T11:41:05;2.50;;;2.00;;
76336;SDS011;65157;50.082;18.178;2023-08-12T11:46:00;2.70;;;2.50;;
76336;SDS011;65157;50.082;18.178;2023-08-12T11:50:54;3.70;;;3.50;;
76336;SDS011;65157;50.082;18.178;2023-08-12T11:53:24;3.20;;;3.00;;
76336;SDS011;65157;50.082;18.178;2023-08-12T11:55:50;2.90;;;2.40;;
76336;SDS011;65157;50.082;18.178;2023-08-12T11:58:16;2.10;;;2.00;;
76336;SDS011;65157;50.082;18.178;2023-08-12T12:00:42;2.00;;;1.90;;
76336;SDS011;65157;50.082;18.178;2023-08-12T12:03:08;3.10;;;2.50;;
76336;SDS011;65157;50.082;18.178;2023-08-12T12:08:00;2.00;;;1.90;;
76336;SDS011;65157;50.082;18.178;2023-08-12T12:10:26;2.60;;;2.40;;
76336;SDS011;65157;50.082;18.178;2023-08-12T12:12:56;3.50;;;3.30;;
76336;SDS011;65157;50.082;18.178;2023-08-12T12:15:22;2.70;;;2.60;;
76336;SDS011;65157;50.082;18.178;2023-08-12T12:17:50;2.00;;;1.90;;
76336;SDS011;65157;50.082;18.178;2023-08-12T12:20:17;3.30;;;2.00;;
76336;SDS011;65157;50.082;18.178;2023-08-12T12:22:44;2.50;;;2.40;;
76336;SDS011;65157;50.082;18.178;2023-08-12T12:25:11;1.90;;;1.80;;
76336;SDS011;65157;50.082;18.178;2023-08-12T12:27:38;1.90;;;1.80;;
76336;SDS011;65157;50.082;18.178;2023-08-12T12:30:07;2.30;;;2.10;;
76336;SDS011;65157;50.082;18.178;2023-08-12T12:32:34;2.30;;;2.20;;
76336;SDS011;65157;50.082;18.178;2023-08-12T12:35:01;3.70;;;2.40;;
76336;SDS011;65157;50.082;18.178;2023-08-12T12:37:27;3.80;;;3.60;;
76336;SDS011;65157;50.082;18.178;2023-08-12T12:42:19;3.00;;;1.90;;
76336;SDS011;65157;50.082;18.178;2023-08-12T12:47:11;2.90;;;2.70;;
76336;SDS011;65157;50.082;18.178;2023-08-12T12:52:02;3.40;;;2.00;;
76336;SDS011;65157;50.082;18.178;2023-08-12T12:56:55;2.30;;;2.20;;
76336;SDS011;65157;50.082;18.178;2023-08-12T12:59:21;2.60;;;1.90;;
76336;SDS011;65157;50.082;18.178;2023-08-12T13:01:48;3.50;;;3.20;;
76336;SDS011;65157;50.082;18.178;2023-08-12T13:06:40;2.90;;;2.70;;
76336;SDS011;65157;50.082;18.178;2023-08-12T13:09:06;2.90;;;2.70;;
76336;SDS011;65157;50.082;18.178;2023-08-12T13:13:59;2.00;;;1.80;;
76336;SDS011;65157;50.082;18.178;2023-08-12T13:18:50;2.10;;;1.80;;
76336;SDS011;65157;50.082;18.178;2023-08-12T13:21:17;3.30;;;3.00;;
76336;SDS011;65157;50.082;18.178;2023-08-12T13:26:08;2.00;;;1.90;;
76336;SDS011;65157;50.082;18.178;2023-08-12T13:28:34;2.60;;;2.50;;
76336;SDS011;65157;50.082;18.178;2023-08-12T13:31:00;1.80;;;1.70;;
76336;SDS011;65157;50.082;18.178;2023-08-12T13:35:52;1.90;;;1.80;;
76336;SDS011;65157;50.082;18.178;2023-08-12T13:40:44;3.10;;;2.90;;
76336;SDS011;65157;50.082;18.178;2023-08-12T13:45:35;4.10;;;2.70;;
76336;SDS011;65157;50.082;18.178;2023-08-12T13:48:01;4.30;;;1.90;;
76336;SDS011;65157;50.082;18.178;2023-08-12T13:50:28;1.80;;;1.70;;
76336;SDS011;65157;50.082;18.178;2023-08-12T13:52:54;2.00;;;1.70;;
76336;SDS011;65157;50.082;18.178;2023-08-12T13:57:46;2.60;;;2.10;;
76336;SDS011;65157;50.082;18.178;2023-08-12T14:02:37;2.30;;;2.10;;
76336;SDS011;65157;50.082;18.178;2023-08-12T14:07:29;2.60;;;2.30;;
76336;SDS011;65157;50.082;18.178;2023-08-12T14:09:56;2.50;;;2.20;;
76336;SDS011;65157;50.082;18.178;2023-08-12T14:12:22;2.50;;;2.00;;
76336;SDS011;65157;50.082;18.178;2023-08-12T14:17:15;2.40;;;2.30;;
76336;SDS011;65157;50.082;18.178;2023-08-12T14:19:41;3.20;;;2.20;;
76336;SDS011;65157;50.082;18.178;2023-08-12T14:22:09;2.20;;;2.00;;
76336;SDS011;65157;50.082;18.178;2023-08-12T14:27:00;2.40;;;2.20;;
76336;SDS011;65157;50.082;18.178;2023-08-12T14:31:52;2.90;;;2.70;;
76336;SDS011;65157;50.082;18.178;2023-08-12T14:36:44;4.20;;;2.40;;
76336;SDS011;65157;50.082;18.178;2023-08-12T14:39:10;3.20;;;3.00;;
76336;SDS011;65157;50.082;18.178;2023-08-12T14:44:02;2.50;;;2.30;;
76336;SDS011;65157;50.082;18.178;2023-08-12T14:46:28;3.40;;;3.20;;
76336;SDS011;65157;50.082;18.178;2023-08-12T14:51:20;2.10;;;1.90;;
76336;SDS011;65157;50.082;18.178;2023-08-12T14:53:45;2.40;;;2.30;;
76336;SDS011;65157;50.082;18.178;2023-08-12T14:56:11;2.40;;;2.30;;
76336;SDS011;65157;50.082;18.178;2023-08-12T15:01:03;2.80;;;2.60;;
76336;SDS011;65157;50.082;18.178;2023-08-12T15:03:29;3.30;;;3.10;;
76336;SDS011;65157;50.082;18.178;2023-08-12T15:06:01;3.50;;;2.30;;
76336;SDS011;65157;50.082;18.178;2023-08-12T15:08:31;3.10;;;2.90;;
76336;SDS011;65157;50.082;18.178;2023-08-12T15:10:57;2.50;;;2.30;;
76336;SDS011;65157;50.082;18.178;2023-08-12T15:13:24;3.80;;;3.50;;
76336;SDS011;65157;50.082;18.178;2023-08-12T15:15:51;2.70;;;2.30;;
76336;SDS011;65157;50.082;18.178;2023-08-12T15:18:17;3.50;;;3.10;;
76336;SDS011;65157;50.082;18.178;2023-08-12T15:20:44;3.80;;;3.40;;
76336;SDS011;65157;50.082;18.178;2023-08-12T15:23:11;4.20;;;3.80;;
76336;SDS011;65157;50.082;18.178;2023-08-12T15:25:37;8.60;;;3.90;;
76336;SDS011;65157;50.082;18.178;2023-08-12T15:28:03;3.30;;;2.60;;
76336;SDS011;65157;50.082;18.178;2023-08-12T15:30:29;5.50;;;4.80;;
76336;SDS011;65157;50.082;18.178;2023-08-12T15:32:55;2.70;;;2.50;;
76336;SDS011;65157;50.082;18.178;2023-08-12T15:35:21;3.60;;;2.70;;
76336;SDS011;65157;50.082;18.178;2023-08-12T15:37:47;3.20;;;2.90;;
76336;SDS011;65157;50.082;18.178;2023-08-12T15:40:13;3.20;;;2.70;;
76336;SDS011;65157;50.082;18.178;2023-08-12T15:42:39;4.60;;;4.20;;
76336;SDS011;65157;50.082;18.178;2023-08-12T15:45:05;15.50;;;8.70;;
76336;SDS011;65157;50.082;18.178;2023-08-12T15:47:32;5.00;;;4.70;;
76336;SDS011;65157;50.082;18.178;2023-08-12T15:49:58;5.80;;;4.20;;
76336;SDS011;65157;50.082;18.178;2023-08-12T15:52:24;6.70;;;4.30;;
76336;SDS011;65157;50.082;18.178;2023-08-12T15:54:50;2.90;;;2.70;;
76336;SDS011;65157;50.082;18.178;2023-08-12T15:57:16;5.30;;;2.50;;